Time;durP1;ratioP1;P1;durP2;ratioP2;P2;SDS_P1;SDS_P2;PMS_P1;PMS_P2;Temp;Humidity;BMP_temperature;BMP_pressure;BME280_temperature;BME280_humidity;BME280_pressure;Samples;Min_cycle;Max_cycle;Signal;HPM_P1;HPM_P2
2022/06/13 00:00:17;;;;;;;1999.90;999.90;;;;;;;20.92;100.00;95282.81;5114649;28;20316;-60
2022/06/13 00:02:42;;;;;;;1999.90;999.90;;;;;;;20.96;100.00;95272.28;5114674;28;20210;-70
2022/06/13 00:05:08;;;;;;;1999.90;999.90;;;;;;;20.97;100.00;95273.03;5113883;28;20239;-68
2022/06/13 00:07:34;;;;;;;1999.90;999.90;;;;;;;21.00;100.00;95291.53;5097122;28;20176;-69
2022/06/13 00:10:00;;;;;;;1999.90;999.90;;;;;;;20.92;100.00;95343.91;5114071;28;20190;-69
2022/06/13 00:12:26;;;;;;;1999.90;999.90;;;;;;;20.96;100.00;95350.06;5097204;28;20212;-68
2022/06/13 00:14:51;;;;;;;1999.90;999.90;;;;;;;20.98;100.00;95357.91;5097454;28;20223;-69
2022/06/13 00:17:16;;;;;;;1999.90;999.90;;;;;;;21.03;100.00;95358.03;5096911;28;20188;-57
2022/06/13 00:19:42;;;;;;;1999.90;999.90;;;;;;;20.84;100.00;95330.81;5097009;28;20225;-60
2022/06/13 00:22:07;;;;;;;1999.90;999.90;;;;;;;20.52;100.00;95326.78;5113838;28;20203;-53
2022/06/13 00:24:33;;;;;;;1999.90;999.90;;;;;;;20.36;100.00;95299.41;5114597;28;20235;-55
2022/06/13 00:27:00;;;;;;;1999.90;999.90;;;;;;;20.07;100.00;95240.19;5113520;28;20628;-54
2022/06/13 00:29:25;;;;;;;1999.90;999.90;;;;;;;19.84;100.00;95194.53;5113947;28;20237;-52
2022/06/13 00:31:51;;;;;;;1999.90;999.90;;;;;;;19.59;100.00;95133.19;5113612;28;20191;-54
2022/06/13 00:34:16;;;;;;;1999.90;999.90;;;;;;;19.39;100.00;95028.47;5114979;28;20188;-49
2022/06/13 00:36:41;;;;;;;1999.90;999.90;;;;;;;19.19;100.00;94920.22;5114082;28;20186;-59
2022/06/13 00:39:07;;;;;;;1999.90;999.90;;;;;;;19.11;100.00;94822.13;5113621;28;20203;-57
2022/06/13 00:41:37;;;;;;;1999.90;999.90;;;;;;;19.10;100.00;94715.41;5096413;28;20199;-57
2022/06/13 00:44:18;;;;;;;1999.90;999.90;;;;;;;19.00;100.00;94633.69;5096814;28;20212;-57
2022/06/13 00:46:44;;;;;;;1999.90;999.90;;;;;;;18.96;100.00;94537.03;5113455;28;20252;-57
2022/06/13 00:49:21;;;;;;;1999.90;999.90;;;;;;;19.03;100.00;94491.59;5096487;28;20217;-57
2022/06/13 00:51:52;;;;;;;1999.90;999.90;;;;;;;19.05;100.00;94442.06;5114017;28;20236;-57
2022/06/13 00:54:21;;;;;;;1999.90;999.90;;;;;;;19.11;100.00;94451.19;5097526;28;20233;-68
2022/06/13 00:56:49;;;;;;;1999.90;999.90;;;;;;;19.06;100.00;94422.19;5113467;28;20195;-53
2022/06/13 00:59:18;;;;;;;1999.90;999.90;;;;;;;19.09;100.00;94406.63;5096524;28;20188;-68
2022/06/13 01:01:44;;;;;;;1999.90;999.90;;;;;;;19.10;100.00;94350.03;5096264;28;20235;-67
2022/06/13 01:04:11;;;;;;;1999.90;999.90;;;;;;;19.05;100.00;94287.06;5113425;28;20188;-66
2022/06/13 01:06:43;;;;;;;1999.90;999.90;;;;;;;18.85;100.00;94179.91;5096868;28;20236;-65
2022/06/13 01:09:11;;;;;;;1999.90;999.90;;;;;;;18.86;100.00;94058.91;5096407;28;20187;-66
2022/06/13 01:11:49;;;;;;;1999.90;999.90;;;;;;;18.76;100.00;93930.31;5096155;28;20214;-64
2022/06/13 01:14:39;;;;;;;1999.90;999.90;;;;;;;18.75;100.00;93801.53;5096579;28;20190;-62
2022/06/13 01:17:11;;;;;;;1999.90;999.90;;;;;;;18.71;100.00;93666.25;5096882;28;20183;-53
2022/06/13 01:20:03;;;;;;;1999.90;999.90;;;;;;;18.73;100.00;93513.63;5112953;28;20240;-53
2022/06/13 01:22:44;;;;;;;1999.90;999.90;;;;;;;18.72;100.00;93391.19;5114246;28;20199;-53
2022/06/13 01:25:31;;;;;;;1999.90;999.90;;;;;;;18.70;100.00;93285.09;5112509;28;20207;-54
2022/06/13 01:28:32;;;;;;;1999.90;999.90;;;;;;;18.67;100.00;93175.50;5113646;28;20194;-53
2022/06/13 01:31:22;;;;;;;1999.90;999.90;;;;;;;18.55;100.00;93060.69;5096320;28;20194;-58
2022/06/13 01:34:10;;;;;;;1999.90;999.90;;;;;;;18.42;100.00;92950.69;5113100;28;20236;-59
2022/06/13 01:36:41;;;;;;;1999.90;999.90;;;;;;;18.45;100.00;92877.03;5100048;28;20194;-58
2022/06/13 01:39:07;;;;;;;1999.90;999.90;;;;;;;18.40;100.00;92731.34;5099500;28;20236;-58
2022/06/13 01:41:47;;;;;;;1999.90;999.90;;;;;;;18.43;100.00;92592.13;5116493;28;20290;-58
2022/06/13 01:44:26;;;;;;;1999.90;999.90;;;;;;;18.43;100.00;92462.22;5116689;28;20187;-58
2022/06/13 01:47:09;;;;;;;1999.90;999.90;;;;;;;18.45;100.00;92321.47;5116536;28;20195;-59
2022/06/13 01:50:09;;;;;;;1999.90;999.90;;;;;;;18.47;100.00;92183.53;5116363;28;20188;-59
2022/06/13 01:52:47;;;;;;;1999.90;999.90;;;;;;;18.50;100.00;92071.91;5099297;28;20211;-59
2022/06/13 01:55:13;;;;;;;1999.90;999.90;;;;;;;18.54;100.00;92042.66;5116288;28;20240;-59
2022/06/13 01:57:40;;;;;;;1999.90;999.90;;;;;;;18.56;100.00;91978.53;5116179;28;20191;-59
2022/06/13 02:00:17;;;;;;;1999.90;999.90;;;;;;;18.51;100.00;91888.94;5116207;28;20287;-59
2022/06/13 02:02:46;;;;;;;1999.90;999.90;;;;;;;18.55;100.00;91697.91;5116444;28;20191;-59
2022/06/13 02:05:25;;;;;;;1999.90;999.90;;;;;;;18.65;100.00;91599.38;5116359;28;20282;-59
2022/06/13 02:07:58;;;;;;;1999.90;999.90;;;;;;;18.64;100.00;91515.72;5099346;28;20257;-59
2022/06/13 02:10:29;;;;;;;1999.90;999.90;;;;;;;18.71;100.00;91439.63;5116064;28;20180;-59
2022/06/13 02:13:06;;;;;;;1999.90;999.90;;;;;;;18.71;100.00;91398.16;5116276;28;20187;-59
2022/06/13 02:15:39;;;;;;;1999.90;999.90;;;;;;;18.63;100.00;91365.00;5098950;28;20187;-59
2022/06/13 02:18:32;;;;;;;1999.90;999.90;;;;;;;18.70;100.00;91352.47;5098931;28;20187;-58
2022/06/13 02:21:06;;;;;;;1999.90;999.90;;;;;;;18.58;100.00;91367.94;5115937;28;20214;-59
2022/06/13 02:23:38;;;;;;;1999.90;999.90;;;;;;;18.60;100.00;91323.91;5099161;28;20319;-58
2022/06/13 02:26:08;;;;;;;1999.90;999.90;;;;;;;18.59;100.00;91294.78;5099783;28;20191;-58
2022/06/13 02:28:53;;;;;;;1999.90;999.90;;;;;;;18.47;100.00;91257.78;5099353;28;20241;-66
2022/06/13 02:31:29;;;;;;;1999.90;999.90;;;;;;;18.51;100.00;91186.28;5099174;28;20191;-64
2022/06/13 02:34:00;;;;;;;1999.90;999.90;;;;;;;18.47;100.00;91136.91;5116228;28;20188;-64
2022/06/13 02:36:35;;;;;;;1999.90;999.90;;;;;;;18.44;100.00;91059.97;5115701;28;20215;-65
2022/06/13 02:39:09;;;;;;;1999.90;999.90;;;;;;;18.44;100.00;91004.69;5098705;28;20199;-64
2022/06/13 02:41:45;;;;;;;1999.90;999.90;;;;;;;18.43;100.00;90959.03;5116164;28;20200;-64
2022/06/13 02:44:36;;;;;;;1999.90;999.90;;;;;;;18.43;100.00;90912.06;5099255;28;20187;-59
2022/06/13 02:47:14;;;;;;;1999.90;999.90;;;;;;;18.49;100.00;90891.22;5105222;28;20192;-59
2022/06/13 02:49:56;;;;;;;1999.90;999.90;;;;;;;18.56;100.00;90860.03;5115695;28;20205;-56
2022/06/13 02:52:39;;;;;;;1999.90;999.90;;;;;;;18.51;100.00;90854.72;5098672;28;20222;-51
2022/06/13 02:55:08;;;;;;;1999.90;999.90;;;;;;;18.46;100.00;90853.66;5098767;28;20184;-54
2022/06/13 02:57:42;;;;;;;1999.90;999.90;;;;;;;18.47;100.00;90981.47;5115938;28;20182;-53
2022/06/13 03:00:25;;;;;;;1999.90;999.90;;;;;;;18.46;100.00;90999.34;5115946;28;20218;-52
2022/06/13 03:03:03;;;;;;;1999.90;999.90;;;;;;;18.47;100.00;91009.81;5115228;28;20187;-63
2022/06/13 03:05:46;;;;;;;1999.90;999.90;;;;;;;18.46;100.00;91000.06;5115194;28;20236;-67
2022/06/13 03:08:28;;;;;;;1999.90;999.90;;;;;;;18.44;100.00;91007.47;5114913;28;20237;-59
2022/06/13 03:11:27;;;;;;;1999.90;999.90;;;;;;;18.46;100.00;91058.09;5098469;28;20199;-59
2022/06/13 03:14:19;;;;;;;1999.90;999.90;;;;;;;18.49;100.00;91073.56;5115169;28;20278;-59
2022/06/13 03:17:13;;;;;;;1999.90;999.90;;;;;;;18.42;100.00;91104.72;5095152;28;20337;-59
2022/06/13 03:19:40;;;;;;;1999.90;999.90;;;;;;;18.48;100.00;91132.88;5114996;28;20191;-60
2022/06/13 03:22:21;;;;;;;1999.90;999.90;;;;;;;18.42;100.00;91189.63;5115011;28;20203;-59
2022/06/13 03:25:19;;;;;;;1999.90;999.90;;;;;;;18.39;100.00;91224.63;5114763;28;20179;-66
2022/06/13 03:27:47;;;;;;;1999.90;999.90;;;;;;;18.34;100.00;91233.81;5109938;28;20195;-67
2022/06/13 03:30:18;;;;;;;1999.90;999.90;;;;;;;18.30;100.00;91243.75;5115272;28;20215;-64
2022/06/13 03:33:39;;;;;;;1999.90;999.90;;;;;;;18.09;100.00;91262.53;5114724;28;20223;-67
2022/06/13 03:35:35;;;;;;;1999.90;999.90;;;;;;;17.87;100.00;91241.19;5115689;28;20308;-67
2022/06/13 03:38:04;;;;;;;1999.90;999.90;;;;;;;17.71;100.00;91259.00;5097912;28;20206;-67
2022/06/13 03:40:31;;;;;;;1999.90;999.90;;;;;;;17.71;100.00;91209.34;5114677;28;20179;-58
2022/06/13 03:43:09;;;;;;;1999.90;999.90;;;;;;;17.72;100.00;91208.03;5097672;28;20180;-62
2022/06/13 03:45:41;;;;;;;1999.90;999.90;;;;;;;17.83;100.00;91224.25;5114952;28;20183;-60
2022/06/13 03:48:22;;;;;;;1999.90;999.90;;;;;;;17.88;100.00;91220.59;5097438;28;20183;-60
2022/06/13 03:50:52;;;;;;;1999.90;999.90;;;;;;;17.85;100.00;91232.72;5097880;28;20209;-60
2022/06/13 03:53:26;;;;;;;1999.90;999.90;;;;;;;17.82;100.00;91244.84;5097419;28;20183;-61
2022/06/13 03:55:57;;;;;;;1999.90;999.90;;;;;;;17.80;100.00;91333.72;5097472;28;20180;-60
2022/06/13 03:58:50;;;;;;;1999.90;999.90;;;;;;;17.76;100.00;91343.66;5114601;28;20212;-58
2022/06/13 04:01:21;;;;;;;1999.90;999.90;;;;;;;17.79;100.00;91323.97;5114745;28;20203;-65
2022/06/13 04:03:46;;;;;;;1999.90;999.90;;;;;;;17.78;100.00;91327.28;5097602;28;20286;-65
2022/06/13 04:06:33;;;;;;;1999.90;999.90;;;;;;;17.84;100.00;91325.06;5114830;28;20227;-65
2022/06/13 04:09:01;;;;;;;1999.90;999.90;;;;;;;17.93;100.00;91299.72;5097124;28;20187;-65
2022/06/13 04:12:17;;;;;;;1999.90;999.90;;;;;;;17.88;100.00;91317.19;5114224;28;20184;-65
2022/06/13 04:15:05;;;;;;;1999.90;999.90;;;;;;;18.02;100.00;91318.50;5094815;28;20202;-64
2022/06/13 04:17:59;;;;;;;1999.90;999.90;;;;;;;18.08;100.00;91330.09;5058053;28;20201;-59
2022/06/13 04:20:33;;;;;;;1999.90;999.90;;;;;;;18.09;100.00;91348.88;5096970;28;20180;-61
2022/06/13 04:23:04;;;;;;;1999.90;999.90;;;;;;;18.12;100.00;91355.34;5114676;28;20233;-61
2022/06/13 04:25:56;;;;;;;1999.90;999.90;;;;;;;18.05;100.00;91378.16;5113992;28;20184;-59
2022/06/13 04:28:54;;;;;;;1999.90;999.90;;;;;;;18.02;100.00;91390.28;5076674;28;20199;-59
2022/06/13 04:31:22;;;;;;;1999.90;999.90;;;;;;;18.04;100.00;91412.56;5068644;28;20196;-59
2022/06/13 04:33:54;;;;;;;1999.90;999.90;;;;;;;18.11;100.00;91420.16;5113786;28;20225;-59
2022/06/13 04:36:23;;;;;;;1999.90;999.90;;;;;;;18.13;100.00;91434.13;5114093;28;20219;-66
2022/06/13 04:38:53;;;;;;;1999.90;999.90;;;;;;;18.11;100.00;91447.75;5113517;28;20207;-59
2022/06/13 04:41:23;;;;;;;1999.90;999.90;;;;;;;18.08;100.00;91466.16;5113802;28;20278;-59
2022/06/13 04:43:52;;;;;;;1999.90;999.90;;;;;;;18.12;100.00;91488.63;5096644;28;20219;-59
2022/06/13 04:46:21;;;;;;;1999.90;999.90;;;;;;;18.09;100.00;91505.53;5113709;28;20188;-59
2022/06/13 04:48:49;;;;;;;1999.90;999.90;;;;;;;18.11;100.00;91508.50;5096654;28;20188;-59
2022/06/13 04:51:19;;;;;;;1999.90;999.90;;;;;;;18.01;100.00;91532.41;5113459;28;20193;-59
2022/06/13 04:54:02;;;;;;;1999.90;999.90;;;;;;;17.96;100.00;91552.63;5096414;28;20187;-67
2022/06/13 04:56:29;;;;;;;1999.90;999.90;;;;;;;17.89;100.00;91581.66;5113811;28;20187;-58
2022/06/13 04:58:57;;;;;;;1999.90;999.90;;;;;;;17.95;100.00;91589.81;5096526;28;20194;-59
2022/06/13 05:01:36;;;;;;;1999.90;999.90;;;;;;;17.95;100.00;91607.09;5096222;28;20203;-59
2022/06/13 05:04:04;;;;;;;1999.90;999.90;;;;;;;17.98;100.00;91608.03;5096789;28;20303;-59
2022/06/13 05:06:37;;;;;;;1999.90;999.90;;;;;;;18.09;100.00;91602.19;5113413;28;20194;-59
2022/06/13 05:09:36;;;;;;;1999.90;999.90;;;;;;;18.04;100.00;91625.94;5113456;28;20194;-60
2022/06/13 05:12:11;;;;;;;1999.90;999.90;;;;;;;17.92;100.00;91641.31;5108997;28;20192;-58
2022/06/13 05:14:56;;;;;;;1999.90;999.90;;;;;;;17.80;100.00;91658.69;5113346;28;20187;-60
2022/06/13 05:17:33;;;;;;;1999.90;999.90;;;;;;;17.92;100.00;91668.91;5113579;28;20198;-60
2022/06/13 05:20:20;;;;;;;1999.90;999.90;;;;;;;18.05;100.00;91670.84;5113605;28;20274;-60
2022/06/13 05:23:15;;;;;;;1999.90;999.90;;;;;;;18.15;100.00;91678.13;5096628;28;20196;-60
2022/06/13 05:25:45;;;;;;;1999.90;999.90;;;;;;;18.05;100.00;91706.75;5096230;28;20195;-59
2022/06/13 05:28:14;;;;;;;1999.90;999.90;;;;;;;18.04;100.00;91716.31;5113190;28;20194;-60
2022/06/13 05:30:51;;;;;;;1999.90;999.90;;;;;;;18.02;100.00;91711.34;5096647;28;20199;-60
2022/06/13 05:33:22;;;;;;;1999.90;999.90;;;;;;;17.90;100.00;91726.72;5113303;28;20279;-59
2022/06/13 05:35:52;;;;;;;1999.90;999.90;;;;;;;17.82;100.00;91736.94;5112817;28;20188;-60
2022/06/13 05:38:25;;;;;;;1999.90;999.90;;;;;;;17.82;100.00;91730.69;5112902;28;20245;-59
2022/06/13 05:40:51;;;;;;;1999.90;999.90;;;;;;;17.83;100.00;91734.91;5113399;28;20286;-58
2022/06/13 05:43:16;;;;;;;1999.90;999.90;;;;;;;17.83;100.00;91726.63;5112898;28;20282;-53
2022/06/13 05:45:42;;;;;;;1999.90;999.90;;;;;;;17.86;100.00;91717.28;5112690;28;20175;-53
2022/06/13 05:48:16;;;;;;;1999.90;999.90;;;;;;;17.94;100.00;91704.28;5095827;28;20187;-54
2022/06/13 05:50:43;;;;;;;1999.90;999.90;;;;;;;18.06;100.00;91702.72;5096025;28;20179;-62
2022/06/13 05:53:15;;;;;;;1999.90;999.90;;;;;;;18.17;100.00;91688.63;5113811;28;20221;-60
2022/06/13 05:55:42;;;;;;;1999.90;999.90;;;;;;;18.31;100.00;91673.41;5096029;28;20199;-57
2022/06/13 05:58:10;;;;;;;1999.90;999.90;;;;;;;18.63;100.00;91635.88;5095900;28;20180;-57
2022/06/13 06:00:40;;;;;;;1999.90;999.90;;;;;;;18.85;100.00;91640.75;5095618;28;20219;-57
2022/06/13 06:03:06;;;;;;;1999.90;999.90;;;;;;;19.06;100.00;91627.53;5095854;28;20180;-56
2022/06/13 06:05:31;;;;;;;1999.90;999.90;;;;;;;19.17;100.00;91632.00;5095481;28;20187;-57
2022/06/13 06:07:57;;;;;;;1999.90;999.90;;;;;;;19.20;100.00;91658.56;5095706;28;20244;-60
2022/06/13 06:10:28;;;;;;;1999.90;999.90;;;;;;;19.31;100.00;91664.50;5096059;28;20266;-62
2022/06/13 06:12:53;;;;;;;1999.90;999.90;;;;;;;19.35;100.00;91697.38;5095702;28;20202;-63
2022/06/13 06:15:19;;;;;;;1999.90;999.90;;;;;;;19.84;100.00;91681.19;5112615;28;20188;-64
2022/06/13 06:17:44;;;;;;;1999.90;999.90;;;;;;;20.99;100.00;91611.91;5112200;28;20321;-62
2022/06/13 06:20:19;;;;;;;1999.90;999.90;;;;;;;22.10;100.00;91598.59;5112856;28;20172;-63
2022/06/13 06:22:45;;;;;;;1999.90;999.90;;;;;;;22.26;100.00;91761.16;5099352;28;20217;-63
2022/06/13 06:25:10;;;;;;;1999.90;999.90;;;;;;;21.98;100.00;91952.59;5099262;28;20243;-58
2022/06/13 06:27:36;;;;;;;1999.90;999.90;;;;;;;21.50;100.00;92134.28;5115861;28;20191;-59
2022/06/13 06:30:03;;;;;;;1999.90;999.90;;;;;;;22.06;100.00;92145.84;5098977;28;20184;-62
2022/06/13 06:32:28;;;;;;;1999.90;999.90;;;;;;;22.75;100.00;92224.44;5098732;28;20270;-62
2022/06/13 06:34:54;;;;;;;1999.90;999.90;;;;;;;23.29;100.00;92429.91;5098991;28;20211;-62
2022/06/13 06:37:19;;;;;;;1999.90;999.90;;;;;;;23.54;100.00;92578.53;5116143;28;20180;-62
2022/06/13 06:39:44;;;;;;;1999.90;999.90;;;;;;;24.07;100.00;92719.50;5115342;28;20199;-62
2022/06/13 06:42:10;;;;;;;1999.90;999.90;;;;;;;24.09;100.00;92839.66;5115444;28;20271;-62
2022/06/13 06:44:35;;;;;;;1999.90;999.90;;;;;;;24.21;100.00;92927.31;5115674;28;20217;-59
2022/06/13 06:47:01;;;;;;;1999.90;999.90;;;;;;;23.95;100.00;92990.94;5115379;28;20184;-61
2022/06/13 06:49:27;;;;;;;1999.90;999.90;;;;;;;23.25;100.00;93059.09;5116147;28;20192;-61
2022/06/13 06:51:52;;;;;;;1999.90;999.90;;;;;;;22.93;100.00;92988.91;5115921;28;20179;-61
2022/06/13 06:59:55;;;;;;;1999.90;999.90;;;;;;;22.39;100.00;92762.22;5116909;28;20210;-62
2022/06/13 07:02:23;;;;;;;1999.90;999.90;;;;;;;22.33;100.00;92678.16;5115032;28;20222;-60
2022/06/13 07:04:59;;;;;;;1999.90;999.90;;;;;;;22.10;100.00;92710.59;5098275;28;20183;-59
2022/06/13 07:07:25;;;;;;;1999.90;999.90;;;;;;;21.88;100.00;92638.88;5098734;28;20175;-59
2022/06/13 07:09:51;;;;;;;1999.90;999.90;;;;;;;21.70;100.00;92589.03;5116206;28;20188;-59
2022/06/13 07:12:17;;;;;;;1999.90;999.90;;;;;;;21.54;100.00;92565.94;5116263;28;20186;-58
2022/06/13 07:14:44;;;;;;;1999.90;999.90;;;;;;;21.35;100.00;92528.56;5114889;28;20188;-58
2022/06/13 07:17:10;;;;;;;1999.90;999.90;;;;;;;21.39;100.00;92499.16;5098037;28;20180;-58
2022/06/13 07:19:37;;;;;;;1999.90;999.90;;;;;;;21.32;100.00;92476.88;5097942;28;20220;-61
2022/06/13 07:22:04;;;;;;;1999.90;999.90;;;;;;;21.49;100.00;92505.72;5097662;28;20203;-55
2022/06/13 07:24:31;;;;;;;1999.90;999.90;;;;;;;21.36;100.00;92572.44;5097923;28;20196;-55
2022/06/13 07:26:56;;;;;;;1999.90;999.90;;;;;;;21.30;100.00;92574.59;5097793;28;20179;-56
2022/06/13 07:29:22;;;;;;;1999.90;999.90;;;;;;;21.27;100.00;92536.06;5115088;28;20237;-51
2022/06/13 07:32:01;;;;;;;1999.90;999.90;;;;;;;21.17;100.00;92538.59;5097626;28;20248;-54
2022/06/13 07:34:30;;;;;;;1999.90;999.90;;;;;;;21.29;100.00;92528.69;5097647;28;20176;-55
2022/06/13 07:36:57;;;;;;;1999.90;999.90;;;;;;;21.22;100.00;92532.16;5115354;28;20195;-54
2022/06/13 07:39:23;;;;;;;1999.90;999.90;;;;;;;21.25;100.00;92517.19;5097792;28;20222;-60
2022/06/13 07:41:49;;;;;;;1999.90;999.90;;;;;;;21.40;100.00;92481.22;5097568;28;20207;-60
2022/06/13 07:44:39;;;;;;;1999.90;999.90;;;;;;;21.36;100.00;92539.13;5098145;28;20219;-59
2022/06/13 07:47:05;;;;;;;1999.90;999.90;;;;;;;21.47;100.00;92544.41;5114946;28;20222;-58
2022/06/13 07:49:31;;;;;;;1999.90;999.90;;;;;;;21.45;100.00;92562.91;5097451;28;20192;-58
2022/06/13 07:51:56;;;;;;;1999.90;999.90;;;;;;;21.46;100.00;92587.34;5097376;28;20237;-58
2022/06/13 07:54:22;;;;;;;1999.90;999.90;;;;;;;21.64;100.00;92611.38;5115011;28;20237;-58
2022/06/13 07:56:48;;;;;;;1999.90;999.90;;;;;;;22.04;100.00;92648.81;5097350;28;20245;-55
2022/06/13 07:59:17;;;;;;;1999.90;999.90;;;;;;;22.44;100.00;92739.06;5097113;28;20260;-58
2022/06/13 08:01:43;;;;;;;1999.90;999.90;;;;;;;22.55;100.00;92832.69;5097644;28;20263;-63
2022/06/13 08:04:09;;;;;;;1999.90;999.90;;;;;;;22.59;100.00;92899.13;5097129;28;20219;-62
2022/06/13 08:06:38;;;;;;;1999.90;999.90;;;;;;;22.43;100.00;92942.69;5113988;28;20230;-62
2022/06/13 08:09:04;;;;;;;1999.90;999.90;;;;;;;23.38;100.00;92933.66;5114203;28;20219;-63
2022/06/13 08:11:33;;;;;;;1999.90;999.90;;;;;;;23.54;100.00;93096.91;5114186;28;20217;-63
2022/06/13 08:13:58;;;;;;;1999.90;999.90;;;;;;;23.64;100.00;93198.28;5096978;28;20187;-63
2022/06/13 08:16:24;;;;;;;1999.90;999.90;;;;;;;23.51;100.00;93259.63;5114114;28;20217;-54
2022/06/13 08:18:49;;;;;;;1999.90;999.90;;;;;;;24.60;100.00;93275.13;5113943;28;20184;-58
2022/06/13 08:21:16;;;;;;;1999.90;999.90;;;;;;;24.98;100.00;93474.56;5114376;28;20211;-58
2022/06/13 08:23:43;;;;;;;1999.90;999.90;;;;;;;24.67;100.00;93629.88;5096713;28;20264;-58
2022/06/13 08:26:09;;;;;;;1999.90;999.90;;;;;;;24.83;100.00;93653.94;5114855;28;20179;-59
2022/06/13 08:28:35;;;;;;;1999.90;999.90;;;;;;;24.43;100.00;93778.00;5113967;28;20187;-59
2022/06/13 08:31:06;;;;;;;1999.90;999.90;;;;;;;24.21;100.00;93785.97;5115367;28;20180;-58
2022/06/13 08:33:33;;;;;;;1999.90;999.90;;;;;;;23.76;100.00;93738.44;5097259;28;20192;-58
2022/06/13 08:35:58;;;;;;;1999.90;999.90;;;;;;;23.32;100.00;93727.13;5096885;28;20249;-57
2022/06/13 08:38:24;;;;;;;1999.90;999.90;;;;;;;22.71;100.00;93704.78;5096593;28;20215;-58
2022/06/13 08:41:05;;;;;;;1999.90;999.90;;;;;;;23.06;100.00;93671.22;5096478;28;20275;-57
2022/06/13 08:43:43;;;;;;;1999.90;999.90;;;;;;;23.09;100.00;93703.59;5113825;28;20226;-58
2022/06/13 08:46:23;;;;;;;1999.90;999.90;;;;;;;24.46;100.00;93737.88;5113173;28;20183;-56
2022/06/13 08:48:58;;;;;;;1999.90;999.90;;;;;;;24.92;100.00;93934.94;5113459;28;20191;-57
2022/06/13 08:51:48;;;;;;;1999.90;999.90;;;;;;;25.50;100.00;94117.53;5113885;28;20191;-58
2022/06/13 08:54:24;;;;;;;1999.90;999.90;;;;;;;25.47;100.00;94269.63;5096964;28;20194;-58
2022/06/13 08:56:52;;;;;;;1999.90;999.90;;;;;;;25.39;100.00;94291.81;5113200;28;20219;-60
2022/06/13 08:59:36;;;;;;;1999.90;999.90;;;;;;;26.39;100.00;94352.84;5113331;28;20218;-58
2022/06/13 09:02:12;;;;;;;1999.90;999.90;;;;;;;27.94;100.00;94570.69;5113391;28;20219;-60
2022/06/13 09:04:40;;;;;;;1999.90;999.90;;;;;;;29.06;100.00;95076.53;5096959;28;20183;-59
2022/06/13 09:07:09;;;;;;;1999.90;999.90;;;;;;;29.65;100.00;95262.03;5096737;28;20184;-59
2022/06/13 09:09:41;;;;;;;1999.90;999.90;;;;;;;30.57;100.00;95346.59;5096716;28;20219;-59
2022/06/13 09:12:09;;;;;;;1999.90;999.90;;;;;;;30.03;99.50;95432.63;5096181;28;20569;-58
2022/06/13 09:14:46;;;;;;;1999.90;999.90;;;;;;;29.99;97.84;95443.44;5113573;28;20245;-64
2022/06/13 09:17:28;;;;;;;1999.90;999.90;;;;;;;29.68;94.76;95477.84;5096434;28;20182;-64
2022/06/13 09:20:01;;;;;;;1999.90;999.90;;;;;;;29.54;91.45;95498.69;5096522;28;20207;-65
2022/06/13 09:22:35;;;;;;;1999.90;999.90;;;;;;;28.36;91.31;95504.00;5096111;28;20254;-65
2022/06/13 09:25:25;;;;;;;1999.90;999.90;;;;;;;28.18;94.98;95486.41;5113468;28;20188;-64
2022/06/13 09:27:55;;;;;;;1999.90;999.90;;;;;;;27.85;99.02;95488.56;5096374;28;20238;-66
2022/06/13 09:30:26;;;;;;;1999.90;999.90;;;;;;;28.19;100.00;95490.00;5113178;28;20180;-59
2022/06/13 09:32:55;;;;;;;1999.90;999.90;;;;;;;27.89;97.90;95512.28;5096127;28;20211;-58
2022/06/13 09:35:24;;;;;;;1999.90;999.90;;;;;;;27.98;98.39;95514.81;5113997;28;20184;-58
2022/06/13 09:37:58;;;;;;;1999.90;999.90;;;;;;;28.69;92.57;95523.56;5112638;28;20190;-58
2022/06/13 09:40:58;;;;;;;1999.90;999.90;;;;;;;28.21;89.01;95540.81;5096160;28;20232;-57
2022/06/13 09:43:39;;;;;;;1999.90;999.90;;;;;;;28.46;90.13;95541.78;5112790;28;20194;-55
2022/06/13 09:46:16;;;;;;;1999.90;999.90;;;;;;;28.06;86.22;95555.16;5113282;28;20232;-59
2022/06/13 09:49:20;;;;;;;1999.90;999.90;;;;;;;28.54;83.33;95562.47;5112848;28;20195;-57
2022/06/13 09:51:45;;;;;;;1999.90;999.90;;;;;;;29.22;73.56;95568.03;5113153;28;20220;-58
2022/06/13 09:54:33;;;;;;;1999.90;999.90;;;;;;;30.08;65.58;95575.56;5112648;28;20176;-57
2022/06/13 09:57:16;;;;;;;1999.90;999.90;;;;;;;30.91;61.33;95578.25;5115547;28;20184;-58
2022/06/13 10:00:08;;;;;;;1999.90;999.90;;;;;;;30.91;58.62;95578.25;5116190;28;20211;-54
2022/06/13 10:02:40;;;;;;;1999.90;999.90;;;;;;;31.43;56.59;95589.91;5099485;28;20207;-56
2022/06/13 10:05:32;;;;;;;1999.90;999.90;;;;;;;31.61;51.04;95582.69;5115832;28;20176;-55
2022/06/13 10:08:07;;;;;;;1999.90;999.90;;;;;;;31.70;51.40;95574.56;5116399;28;20192;-57
2022/06/13 10:10:53;;;;;;;1999.90;999.90;;;;;;;31.83;50.52;95577.44;5116513;28;20202;-63
2022/06/13 10:13:28;;;;;;;1999.90;999.90;;;;;;;32.46;49.84;95576.63;5116400;28;20263;-63
2022/06/13 10:16:11;;;;;;;1999.90;999.90;;;;;;;32.21;49.71;95576.03;5116560;28;20179;-63
2022/06/13 10:19:12;;;;;;;1999.90;999.90;;;;;;;32.16;50.59;95587.44;5116877;28;20191;-63
2022/06/13 10:21:47;;;;;;;1999.90;999.90;;;;;;;32.14;52.98;95579.50;5099589;28;20208;-62
2022/06/13 10:24:33;;;;;;;1999.90;999.90;;;;;;;32.64;47.26;95587.84;5099228;28;20179;-58
2022/06/13 10:27:38;;;;;;;1999.90;999.90;;;;;;;32.73;48.86;95578.16;5115711;28;20245;-57
2022/06/13 10:30:25;;;;;;;1999.90;999.90;;;;;;;32.62;48.27;95584.78;5115911;28;20232;-55
2022/06/13 10:33:07;;;;;;;1999.90;999.90;;;;;;;31.75;50.50;95576.53;5115480;28;20186;-56
2022/06/13 10:35:54;;;;;;;1999.90;999.90;;;;;;;30.92;54.03;95571.34;5116117;28;20191;-57
2022/06/13 10:38:25;;;;;;;1999.90;999.90;;;;;;;29.94;57.79;95593.63;5116692;28;20207;-57
2022/06/13 10:40:51;;;;;;;1999.90;999.90;;;;;;;29.47;60.06;95595.00;5098801;28;20274;-57
2022/06/13 10:43:17;;;;;;;1999.90;999.90;;;;;;;28.32;62.16;95593.44;5115713;28;20321;-59
2022/06/13 10:45:43;;;;;;;1999.90;999.90;;;;;;;29.32;58.26;95591.75;5098590;28;20176;-58
2022/06/13 10:48:36;;;;;;;1999.90;999.90;;;;;;;30.49;52.74;95595.91;5098303;28;20187;-59
2022/06/13 10:51:04;;;;;;;1999.90;999.90;;;;;;;31.72;46.05;95593.81;5098717;28;20198;-58
2022/06/13 10:53:41;;;;;;;1999.90;999.90;;;;;;;31.92;45.85;95579.88;5098726;28;20191;-58
2022/06/13 10:56:15;;;;;;;1999.90;999.90;;;;;;;31.89;41.29;95592.25;5098407;28;20175;-59
2022/06/13 10:58:47;;;;;;;1999.90;999.90;;;;;;;32.09;42.34;95588.84;5098578;28;20193;-58
2022/06/13 11:01:17;;;;;;;1999.90;999.90;;;;;;;31.13;45.47;95592.84;5115189;28;20230;-63
2022/06/13 11:04:01;;;;;;;1999.90;999.90;;;;;;;31.65;44.89;95595.22;5098754;28;20267;-62
2022/06/13 11:06:38;;;;;;;1999.90;999.90;;;;;;;31.55;45.31;95596.13;5115633;28;20188;-62
2022/06/13 11:09:17;;;;;;;1999.90;999.90;;;;;;;31.82;42.30;95586.50;5097781;28;20190;-62
2022/06/13 11:11:43;;;;;;;1999.90;999.90;;;;;;;30.53;50.00;95599.22;5098486;28;20195;-64
2022/06/13 11:14:26;;;;;;;1999.90;999.90;;;;;;;29.51;56.66;95603.91;5114996;28;20183;-64
2022/06/13 11:22:38;;;;;;;1999.90;999.90;;;;;;;27.90;61.98;95591.72;5116236;28;20295;-59
2022/06/13 11:25:12;;;;;;;1999.90;999.90;;;;;;;27.63;64.57;95604.44;5114782;28;20188;-59
2022/06/13 11:27:39;;;;;;;1999.90;999.90;;;;;;;27.17;68.29;95595.66;5115098;28;20190;-59